Hlavní strana
METAR-TAF:

METAR-TAF

Letiště :

Hohenfels, Německo

zeměpisná šířka: 49-13N, zeměpisná délka: 011-50E, výška: 442 m

Aktuální stav počasí

Zpráva byla vytvořena před 17 minutami, v 16:56 UTC
Severovýchodní vítr 5 kt
Teplota 3°C
Vlhkost vzduchu 93%
Tlak 1029 hPa
Viditelnost 10 km a více
Jasno

METAR: ETIH 171656Z AUTO 04005KT 9999 CLR 03/02 A3040 RMK AO2 SLP322 T00250024 $

Čas: 18:13 (17:13 UTC)


TAF: chybějící

Stav a předpovědi počasí z více než 4 000 letišť (zprávy METAR a TAF).

Červené a žluté tečky na mapě představují dostupné meteorologické stanice.

Když kurzor umístíte na tečku, zobrazí se název stanice.

Pak kliknutím zobrazíte stav a předpověď počasí.

Chcete-li změnit mapu, kliknutím na zelené tlačítko se znaménkem +mapu přiblížíte, kliknutím na zelené tlačítko se znaménkem – mapu oddálíte a kliknutím na zelené šipky přejdete na sousední mapy.


METAR-TAF: